EZY8E EGHQ-EGHQ
Flight info
| Callsign | EZY8E |
|---|---|
| Flight time | 0h 11m |
| Altitude | 3000 |
| Route | EGHQ |
| Aircraft | A320/L-SDE2E3FGHIJ1RWXY/LB1 |
Departure
| Time | 2026-05-06 16:49 |
|---|---|
| Airport | Cornwall Airport Newquay (EGHQ) |
Arrival
| Time | 2026-05-06 17:00 |
|---|---|
| Airport | Cornwall Airport Newquay (EGHQ) |
| Time | Latitude | Longitude | Altitude | Speed | Heading |
|---|---|---|---|---|---|
| 2026-05-06 16:46 | 50.44746 | -5.00622 | 321 ft | 0 kts | 119° |
| 2026-05-06 16:47 | 50.44721 | -5.00606 | 321 ft | 20 kts | 174° |
| 2026-05-06 16:47 | 50.44692 | -5.00678 | 321 ft | 4 kts | 316° |
| 2026-05-06 16:47 | 50.44722 | -5.00731 | 319 ft | 16 kts | 303° |
| 2026-05-06 16:48 | 50.44801 | -5.01025 | 313 ft | 34 kts | 264° |
| 2026-05-06 16:48 | 50.44650 | -5.01052 | 312 ft | 31 kts | 107° |
| 2026-05-06 16:48 | 50.44435 | -5.00471 | 328 ft | 114 kts | 120° |
| 2026-05-06 16:48 | 50.43908 | -4.99078 | 836 ft | 167 kts | 120° |
| 2026-05-06 16:49 | 50.43296 | -4.97323 | 1790 ft | 199 kts | 118° |
| 2026-05-06 16:49 | 50.42637 | -4.95435 | 2506 ft | 185 kts | 115° |
| 2026-05-06 16:49 | 50.42400 | -4.93513 | 2346 ft | 178 kts | 82° |
| 2026-05-06 16:49 | 50.42418 | -4.91625 | 2177 ft | 171 kts | 109° |
| 2026-05-06 16:50 | 50.41607 | -4.90606 | 2152 ft | 148 kts | 179° |
| 2026-05-06 16:50 | 50.40840 | -4.91417 | 2159 ft | 138 kts | 256° |
| 2026-05-06 16:50 | 50.41008 | -4.92855 | 1946 ft | 145 kts | 310° |
| 2026-05-06 16:50 | 50.41565 | -4.93502 | 1718 ft | 156 kts | 329° |
| 2026-05-06 16:51 | 50.42477 | -4.95224 | 1196 ft | 151 kts | 298° |
| 2026-05-06 16:51 | 50.42986 | -4.96623 | 753 ft | 145 kts | 299° |
| 2026-05-06 16:51 | 50.43479 | -4.97944 | 466 ft | 134 kts | 299° |
| 2026-05-06 16:51 | 50.43917 | -4.99104 | 373 ft | 110 kts | 299° |
| 2026-05-06 16:52 | 50.44334 | -5.00153 | 658 ft | 130 kts | 301° |
| 2026-05-06 16:52 | 50.44899 | -5.01393 | 1363 ft | 150 kts | 315° |
| 2026-05-06 16:52 | 50.45815 | -5.02145 | 2067 ft | 150 kts | 347° |
| 2026-05-06 16:52 | 50.46772 | -5.01942 | 2612 ft | 132 kts | 32° |
| 2026-05-06 16:53 | 50.47232 | -5.00731 | 2758 ft | 139 kts | 86° |
| 2026-05-06 16:53 | 50.46973 | -4.99240 | 2780 ft | 150 kts | 115° |
| 2026-05-06 16:53 | 50.46487 | -4.97855 | 2636 ft | 138 kts | 122° |
| 2026-05-06 16:53 | 50.45964 | -4.96631 | 2300 ft | 139 kts | 124° |
| 2026-05-06 16:54 | 50.45309 | -4.95375 | 1956 ft | 155 kts | 136° |
| 2026-05-06 16:54 | 50.44376 | -4.94591 | 1740 ft | 154 kts | 170° |
| 2026-05-06 16:54 | 50.43328 | -4.94798 | 1471 ft | 154 kts | 213° |
| 2026-05-06 16:54 | 50.42901 | -4.96184 | 1197 ft | 147 kts | 279° |
| 2026-05-06 16:55 | 50.43370 | -4.97658 | 571 ft | 156 kts | 299° |
| 2026-05-06 16:55 | 50.43890 | -4.99019 | 379 ft | 130 kts | 300° |
| 2026-05-06 16:55 | 50.44300 | -5.00120 | 429 ft | 109 kts | 299° |
| 2026-05-06 16:55 | 50.44826 | -5.01334 | 923 ft | 155 kts | 304° |
| 2026-05-06 16:56 | 50.45530 | -5.02723 | 1503 ft | 163 kts | 314° |
| 2026-05-06 16:56 | 50.46449 | -5.03413 | 2179 ft | 144 kts | 355° |
| 2026-05-06 16:56 | 50.47347 | -5.02917 | 2673 ft | 144 kts | 40° |
| 2026-05-06 16:56 | 50.47595 | -5.01478 | 2515 ft | 140 kts | 105° |
| 2026-05-06 16:57 | 50.47286 | -5.00035 | 2194 ft | 143 kts | 111° |
| 2026-05-06 16:57 | 50.46820 | -4.98614 | 1804 ft | 147 kts | 120° |
| 2026-05-06 16:57 | 50.46277 | -4.97313 | 1603 ft | 138 kts | 124° |
| 2026-05-06 16:57 | 50.45702 | -4.96153 | 1373 ft | 132 kts | 129° |
| 2026-05-06 16:58 | 50.45303 | -4.95458 | 1215 ft | 127 kts | 133° |
| 2026-05-06 16:58 | 50.44667 | -4.94466 | 992 ft | 142 kts | 128° |
| 2026-05-06 16:58 | 50.43782 | -4.93581 | 1033 ft | 155 kts | 161° |
| 2026-05-06 16:58 | 50.42776 | -4.93978 | 1175 ft | 155 kts | 223° |
| 2026-05-06 16:59 | 50.42578 | -4.95416 | 1221 ft | 128 kts | 290° |
| 2026-05-06 16:59 | 50.42983 | -4.96710 | 801 ft | 142 kts | 304° |
| 2026-05-06 16:59 | 50.43502 | -4.98009 | 475 ft | 136 kts | 298° |
| 2026-05-06 16:59 | 50.43954 | -4.99200 | 366 ft | 117 kts | 298° |
| 2026-05-06 17:00 | 50.44211 | -4.99894 | 339 ft | 9 kts | 304° |
| 2026-05-06 17:00 | 50.44212 | -4.99897 | 339 ft | 0 kts | 303° |
| 2026-05-06 17:02 | 50.44214 | -4.99901 | 340 ft | 11 kts | 303° |
| 2026-05-06 17:02 | 50.44474 | -5.00611 | 347 ft | 129 kts | 297° |
| 2026-05-06 17:03 | 50.45029 | -5.01993 | 901 ft | 165 kts | 301° |
| 2026-05-06 17:03 | 50.45643 | -5.03641 | 1672 ft | 184 kts | 302° |
| 2026-05-06 17:03 | 50.46414 | -5.04944 | 2293 ft | 135 kts | 332° |
| 2026-05-06 17:03 | 50.47182 | -5.05016 | 2455 ft | 102 kts | 23° |
| 2026-05-06 17:04 | 50.47701 | -5.04084 | 2145 ft | 142 kts | 63° |
| 2026-05-06 17:04 | 50.47915 | -5.02117 | 2046 ft | 210 kts | 89° |
| 2026-05-06 17:04 | 50.47586 | -5.00085 | 1840 ft | 180 kts | 116° |
| 2026-05-06 17:04 | 50.46911 | -4.98567 | 1756 ft | 161 kts | 127° |
| 2026-05-06 17:05 | 50.46241 | -4.97276 | 1730 ft | 146 kts | 127° |
| 2026-05-06 17:05 | 50.45486 | -4.96294 | 1450 ft | 139 kts | 164° |
| 2026-05-06 17:05 | 50.44613 | -4.96414 | 1177 ft | 124 kts | 213° |
| 2026-05-06 17:05 | 50.43825 | -4.97001 | 824 ft | 129 kts | 206° |
| 2026-05-06 17:06 | 50.43472 | -4.97952 | 402 ft | 102 kts | 311° |
| 2026-05-06 17:06 | 50.43746 | -4.98668 | 373 ft | 30 kts | 300° |
| 2026-05-06 17:06 | 50.43758 | -4.98703 | 373 ft | 0 kts | 300° |
| 2026-05-06 17:11 | 50.43798 | -4.98810 | 371 ft | 16 kts | 300° |
| 2026-05-06 17:11 | 50.43852 | -4.98956 | 368 ft | 16 kts | 301° |
| 2026-05-06 17:11 | 50.43908 | -4.99101 | 366 ft | 16 kts | 301° |
| 2026-05-06 17:11 | 50.43964 | -4.99244 | 365 ft | 16 kts | 302° |
| 2026-05-06 17:12 | 50.44022 | -4.99388 | 361 ft | 16 kts | 302° |
| 2026-05-06 17:12 | 50.44068 | -4.99483 | 357 ft | 14 kts | 330° |
| 2026-05-06 17:12 | 50.44141 | -4.99492 | 358 ft | 12 kts | 2° |
| 2026-05-06 17:12 | 50.44221 | -4.99483 | 353 ft | 15 kts | 4° |
| 2026-05-06 17:13 | 50.44270 | -4.99509 | 360 ft | 14 kts | 303° |
| 2026-05-06 17:13 | 50.44325 | -4.99655 | 346 ft | 16 kts | 300° |
| 2026-05-06 17:13 | 50.44379 | -4.99799 | 345 ft | 16 kts | 300° |
| 2026-05-06 17:13 | 50.44434 | -4.99945 | 337 ft | 16 kts | 300° |
| 2026-05-06 17:14 | 50.44474 | -5.00049 | 331 ft | 9 kts | 315° |
| 2026-05-06 17:14 | 50.44518 | -5.00061 | 334 ft | 7 kts | 350° |
| 2026-05-06 17:14 | 50.44551 | -5.00094 | 334 ft | 0 kts | 317° |